createdAt,value
2022-08-17T00:02:26.755Z,22.02
2022-08-17T00:04:55.412Z,21.99
2022-08-17T00:07:22.948Z,21.96
2022-08-17T00:09:50.252Z,21.94
2022-08-17T00:12:43.611Z,21.93
2022-08-17T00:15:05.871Z,21.91
2022-08-17T00:17:35.768Z,21.88
2022-08-17T00:20:04.381Z,21.87
2022-08-17T00:22:36.091Z,21.84
2022-08-17T00:25:07.613Z,21.84
2022-08-17T00:27:35.567Z,21.81
2022-08-17T00:30:04.064Z,21.81
2022-08-17T00:33:14.033Z,21.80
2022-08-17T00:35:27.596Z,21.74
2022-08-17T00:37:55.169Z,21.73
2022-08-17T00:40:22.487Z,21.74
2022-08-17T00:42:53.385Z,21.74
2022-08-17T00:45:22.011Z,21.73
2022-08-17T00:47:49.561Z,21.71
2022-08-17T00:50:18.755Z,21.70
2022-08-17T00:52:52.421Z,21.68
2022-08-17T00:55:19.956Z,21.65
2022-08-17T00:57:53.375Z,21.61
2022-08-17T01:00:28.277Z,21.59
2022-08-17T01:03:02.406Z,21.56
2022-08-17T01:05:31.811Z,21.56
2022-08-17T01:08:00.667Z,21.55
2022-08-17T01:10:58.657Z,21.55
2022-08-17T01:13:21.422Z,21.52
2022-08-17T01:16:11.653Z,21.51
2022-08-17T01:18:39.203Z,21.49
2022-08-17T01:21:11.443Z,21.47
2022-08-17T01:23:38.545Z,21.46
2022-08-17T01:26:06.303Z,21.43
2022-08-17T01:28:55.142Z,21.42
2022-08-17T01:31:22.905Z,21.43
2022-08-17T01:33:50.015Z,21.42
2022-08-17T01:36:17.123Z,21.43
2022-08-17T01:38:44.279Z,21.43
2022-08-17T01:41:14.656Z,21.42
2022-08-17T01:44:04.309Z,21.39
2022-08-17T01:46:35.191Z,21.36
2022-08-17T01:49:06.541Z,21.34
2022-08-17T01:51:33.879Z,21.32
2022-08-17T01:54:05.320Z,21.32
2022-08-17T01:56:34.408Z,21.30
2022-08-17T01:59:01.660Z,21.29
2022-08-17T02:01:30.753Z,21.29
2022-08-17T02:04:00.986Z,21.28
2022-08-17T02:06:45.063Z,21.27
2022-08-17T02:09:22.333Z,21.26
2022-08-17T02:11:54.066Z,21.26
2022-08-17T02:14:21.859Z,21.23
2022-08-17T02:16:49.163Z,21.22
2022-08-17T02:19:17.245Z,21.18
2022-08-17T02:21:46.636Z,21.17
2022-08-17T02:25:00.984Z,21.15
2022-08-17T02:27:06.824Z,21.14
2022-08-17T02:29:34.194Z,21.11
2022-08-17T02:32:01.816Z,21.10
2022-08-17T02:34:29.104Z,21.07
2022-08-17T02:36:56.203Z,21.05
2022-08-17T02:39:23.391Z,21.02
2022-08-17T02:41:50.514Z,21.01
2022-08-17T02:44:39.614Z,20.99
2022-08-17T02:47:04.847Z,20.97
2022-08-17T02:49:31.950Z,20.95
2022-08-17T02:51:59.241Z,20.92
2022-08-17T02:54:40.076Z,20.90
2022-08-17T02:57:10.346Z,20.88
2022-08-17T02:59:38.702Z,20.86
2022-08-17T03:02:11.079Z,20.85
2022-08-17T03:04:38.672Z,20.82
2022-08-17T03:07:06.622Z,20.80
2022-08-17T03:09:33.767Z,20.81
2022-08-17T03:12:09.057Z,20.78
2022-08-17T03:14:41.731Z,20.77
2022-08-17T03:17:16.934Z,20.71
2022-08-17T03:19:44.889Z,20.70
2022-08-17T03:22:35.342Z,20.68
2022-08-17T03:24:59.132Z,20.66
2022-08-17T03:27:26.565Z,20.65
2022-08-17T03:29:54.321Z,20.64
2022-08-17T03:32:21.505Z,20.63
2022-08-17T03:34:48.833Z,20.62
2022-08-17T03:37:15.948Z,20.62
2022-08-17T03:39:43.161Z,20.60
2022-08-17T03:42:14.335Z,20.60
2022-08-17T03:45:00.909Z,20.58
2022-08-17T03:47:46.972Z,20.56
2022-08-17T03:50:33.335Z,20.54
2022-08-17T03:53:21.071Z,20.55
2022-08-17T03:56:06.757Z,20.57
2022-08-17T03:58:33.847Z,20.60
2022-08-17T04:01:01.286Z,20.60
2022-08-17T04:03:28.664Z,20.62
2022-08-17T04:05:55.858Z,20.64
2022-08-17T04:08:22.972Z,20.67
2022-08-17T04:10:50.073Z,20.68
2022-08-17T04:13:24.257Z,20.71
2022-08-17T04:15:53.721Z,20.72
2022-08-17T04:18:20.823Z,20.73
2022-08-17T04:20:47.921Z,20.76
2022-08-17T04:23:17.160Z,20.79
2022-08-17T04:25:48.290Z,20.83
2022-08-17T04:28:16.623Z,20.85
2022-08-17T04:30:45.086Z,20.88
2022-08-17T04:33:15.576Z,20.91
2022-08-17T04:35:45.637Z,20.97
2022-08-17T04:38:15.685Z,21.02
2022-08-17T04:41:02.114Z,21.07
2022-08-17T04:43:31.093Z,21.11
2022-08-17T04:46:00.975Z,21.18
2022-08-17T04:48:36.456Z,21.22
2022-08-17T04:51:15.155Z,21.29
2022-08-17T04:53:44.551Z,21.33
2022-08-17T04:56:18.142Z,21.40
2022-08-17T04:58:49.906Z,21.47
2022-08-17T05:01:23.319Z,21.55
2022-08-17T05:03:53.626Z,21.62
2022-08-17T05:06:20.903Z,21.70
2022-08-17T05:08:47.970Z,21.80
2022-08-17T05:11:15.078Z,21.88
2022-08-17T05:13:42.258Z,21.96
2022-08-17T05:16:09.450Z,22.02
2022-08-17T05:18:38.697Z,22.10
2022-08-17T05:21:06.867Z,22.18
2022-08-17T05:23:41.969Z,22.27
2022-08-17T05:26:25.524Z,22.35
2022-08-17T05:29:00.447Z,22.43
2022-08-17T05:31:30.821Z,22.49
2022-08-17T05:33:58.401Z,22.55
2022-08-17T05:36:43.722Z,22.61
2022-08-17T05:39:16.356Z,22.68
2022-08-17T05:41:46.845Z,22.77
2022-08-17T05:44:14.046Z,22.85
2022-08-17T05:46:43.765Z,22.96
2022-08-17T05:49:11.460Z,23.07
2022-08-17T05:51:41.377Z,23.17
2022-08-17T05:54:27.749Z,23.27
2022-08-17T05:57:25.455Z,23.35
2022-08-17T05:59:59.061Z,23.41
2022-08-17T06:02:47.896Z,23.51
2022-08-17T06:05:27.379Z,23.60
2022-08-17T06:08:03.815Z,23.69
2022-08-17T06:10:48.382Z,23.79
2022-08-17T06:13:36.575Z,23.90
2022-08-17T06:16:33.050Z,23.99
2022-08-17T06:19:13.443Z,24.08
2022-08-17T06:21:44.655Z,24.21
2022-08-17T06:24:36.518Z,24.29
2022-08-17T06:27:27.475Z,24.28
2022-08-17T06:30:09.197Z,24.42
2022-08-17T06:32:43.675Z,24.55
2022-08-17T06:35:13.422Z,24.61
2022-08-17T06:37:59.436Z,24.79
2022-08-17T06:40:47.734Z,24.94
2022-08-17T06:43:24.379Z,25.07
2022-08-17T06:46:04.146Z,25.18
2022-08-17T06:48:49.661Z,25.29
2022-08-17T06:51:25.896Z,25.40
2022-08-17T06:54:22.791Z,25.55
2022-08-17T06:57:03.830Z,25.68
2022-08-17T06:59:56.226Z,25.82
2022-08-17T07:02:52.589Z,25.94
2022-08-17T07:05:34.133Z,26.10
2022-08-17T07:08:17.011Z,26.21
2022-08-17T07:10:51.134Z,26.37
2022-08-17T07:13:54.444Z,26.51
2022-08-17T07:16:36.368Z,26.67
2022-08-17T07:19:04.598Z,26.82
2022-08-17T07:21:42.037Z,26.91
2022-08-17T07:24:30.671Z,27.00
2022-08-17T07:27:13.016Z,27.11
2022-08-17T07:29:46.971Z,27.12
2022-08-17T07:32:18.653Z,27.01
2022-08-17T07:35:12.324Z,27.11
2022-08-17T07:37:56.106Z,27.16
2022-08-17T07:40:27.168Z,27.24
2022-08-17T07:43:22.298Z,27.40
2022-08-17T07:46:21.540Z,27.57
2022-08-17T07:48:54.746Z,27.68
2022-08-17T07:51:29.574Z,27.72
2022-08-17T07:54:19.754Z,27.84
2022-08-17T07:56:54.128Z,28.00
2022-08-17T07:59:24.372Z,28.07
2022-08-17T08:02:07.925Z,28.17
2022-08-17T08:04:59.836Z,28.27
2022-08-17T08:07:34.634Z,28.43
2022-08-17T08:10:04.868Z,28.51
2022-08-17T08:12:38.770Z,28.55
2022-08-17T08:15:25.655Z,28.63
2022-08-17T08:17:55.872Z,28.72
2022-08-17T08:20:53.347Z,28.72
2022-08-17T08:23:41.728Z,28.82
2022-08-17T08:26:36.085Z,28.83
2022-08-17T08:29:09.332Z,28.89
2022-08-17T08:32:03.896Z,29.00
2022-08-17T08:35:00.635Z,29.09
2022-08-17T08:37:49.422Z,29.16
2022-08-17T08:40:31.919Z,29.20
2022-08-17T08:43:22.581Z,29.30
2022-08-17T08:45:57.748Z,29.41
2022-08-17T08:48:56.244Z,29.54
2022-08-17T08:51:31.532Z,29.73
2022-08-17T08:54:12.485Z,29.87
2022-08-17T08:57:19.802Z,29.95
2022-08-17T08:59:41.809Z,30.13
2022-08-17T09:02:29.758Z,30.21
2022-08-17T09:05:14.347Z,30.28
2022-08-17T09:08:05.293Z,30.42
2022-08-17T09:11:02.416Z,30.61
2022-08-17T09:13:54.403Z,30.67
2022-08-17T09:16:34.976Z,30.66
2022-08-17T09:19:12.189Z,30.76
2022-08-17T09:22:01.058Z,30.89
2022-08-17T09:24:35.975Z,31.06
2022-08-17T09:27:46.319Z,31.20
2022-08-17T09:30:14.697Z,31.33
2022-08-17T09:32:46.071Z,31.43
2022-08-17T09:35:19.916Z,31.62
2022-08-17T09:37:52.721Z,31.75
2022-08-17T09:40:38.035Z,31.71
2022-08-17T09:43:24.783Z,31.76
2022-08-17T09:45:57.138Z,32.03
2022-08-17T09:48:41.963Z,32.02
2022-08-17T09:51:25.102Z,32.26
2022-08-17T09:53:52.226Z,32.53
2022-08-17T09:56:41.062Z,32.72
2022-08-17T09:59:38.504Z,32.96
2022-08-17T10:02:26.524Z,33.14
2022-08-17T10:05:21.865Z,33.34
2022-08-17T10:08:09.328Z,33.51
2022-08-17T10:10:56.232Z,33.39
2022-08-17T10:13:53.128Z,33.54
2022-08-17T10:16:38.211Z,33.60
2022-08-17T10:19:05.261Z,33.70
2022-08-17T10:22:00.966Z,33.81
2022-08-17T10:25:22.331Z,33.91
2022-08-17T10:27:55.430Z,34.04
2022-08-17T10:30:26.777Z,33.96
2022-08-17T10:33:01.425Z,33.94
2022-08-17T10:35:36.929Z,33.98
2022-08-17T10:38:37.774Z,34.00
2022-08-17T10:41:30.749Z,34.26
2022-08-17T10:44:38.307Z,34.22
2022-08-17T10:47:09.300Z,34.31
2022-08-17T10:49:54.021Z,34.35
2022-08-17T10:52:27.677Z,34.04
2022-08-17T10:54:56.718Z,33.78
2022-08-17T10:57:32.017Z,33.98
2022-08-17T11:00:15.846Z,33.92
2022-08-17T11:02:51.445Z,33.75
2022-08-17T11:05:18.717Z,33.35
2022-08-17T11:08:07.633Z,33.55
2022-08-17T11:11:12.996Z,33.86
2022-08-17T11:13:57.799Z,34.12
2022-08-17T11:16:50.730Z,34.46
2022-08-17T11:19:34.346Z,34.69
2022-08-17T11:22:19.681Z,34.71
2022-08-17T11:24:48.067Z,34.47
2022-08-17T11:27:30.119Z,34.06
2022-08-17T11:30:08.264Z,34.03
2022-08-17T11:32:54.418Z,34.00
2022-08-17T11:35:21.987Z,34.21
2022-08-17T11:38:16.374Z,34.55
2022-08-17T11:41:07.888Z,34.89
2022-08-17T11:44:26.399Z,34.74
2022-08-17T11:48:16.151Z,35.45
2022-08-17T11:51:07.341Z,36.14
2022-08-17T11:53:37.496Z,36.43
2022-08-17T11:56:04.625Z,36.56
2022-08-17T11:58:31.717Z,36.76
2022-08-17T12:01:00.765Z,37.01
2022-08-17T12:03:31.824Z,36.97
2022-08-17T12:06:20.353Z,36.95
2022-08-17T12:08:55.335Z,36.97
2022-08-17T12:11:55.159Z,36.98
2022-08-17T12:14:51.358Z,37.27
2022-08-17T12:17:39.635Z,37.46
2022-08-17T12:20:18.555Z,37.65
2022-08-17T12:23:01.098Z,38.06
2022-08-17T12:25:41.851Z,37.86
2022-08-17T12:28:34.160Z,37.50
2022-08-17T12:31:16.360Z,37.44
2022-08-17T12:33:45.462Z,37.53
2022-08-17T12:36:15.295Z,37.49
2022-08-17T12:38:59.493Z,37.86
2022-08-17T12:41:47.413Z,37.69
2022-08-17T12:44:21.405Z,37.39
2022-08-17T12:46:53.971Z,37.17
2022-08-17T12:49:42.250Z,37.31
2022-08-17T12:52:16.077Z,37.38
2022-08-17T12:54:59.588Z,37.73
2022-08-17T12:57:32.757Z,37.97
2022-08-17T13:00:17.678Z,38.20
2022-08-17T13:02:49.216Z,38.36
2022-08-17T13:05:48.535Z,38.93
2022-08-17T13:08:19.099Z,39.59
2022-08-17T13:11:09.306Z,40.04
2022-08-17T13:13:39.435Z,40.24
2022-08-17T13:16:12.531Z,40.69
2022-08-17T13:18:53.025Z,40.89
2022-08-17T13:21:30.436Z,40.90
2022-08-17T13:24:03.822Z,40.79
2022-08-17T13:26:43.176Z,40.20
2022-08-17T13:29:26.321Z,40.17
2022-08-17T13:32:02.744Z,39.52
2022-08-17T13:38:51.095Z,38.91
2022-08-17T13:41:34.532Z,39.15
2022-08-17T13:44:02.175Z,39.48
2022-08-17T13:46:32.226Z,40.16
2022-08-17T13:49:00.873Z,40.35
2022-08-17T13:51:42.316Z,40.09
2022-08-17T13:54:30.055Z,39.78
2022-08-17T13:57:00.860Z,39.17
2022-08-17T13:59:48.218Z,38.75
2022-08-17T14:02:20.761Z,38.47
2022-08-17T14:04:48.123Z,38.16
2022-08-17T14:07:16.008Z,37.80
2022-08-17T14:09:57.744Z,37.99
2022-08-17T14:12:27.613Z,38.62
2022-08-17T14:14:56.379Z,39.79
2022-08-17T14:17:24.799Z,41.18
2022-08-17T14:19:52.429Z,41.95
2022-08-17T14:22:26.978Z,41.02
2022-08-17T14:24:54.145Z,40.70
2022-08-17T14:27:21.904Z,40.10
2022-08-17T14:29:49.370Z,39.37
2022-08-17T14:32:18.496Z,38.86
2022-08-17T14:34:46.575Z,39.46
2022-08-17T14:37:13.743Z,40.51
2022-08-17T14:39:40.997Z,42.75
2022-08-17T14:42:11.463Z,44.06
2022-08-17T14:44:39.453Z,45.02
2022-08-17T14:47:07.748Z,45.34
2022-08-17T14:49:34.857Z,45.49
2022-08-17T14:52:02.161Z,44.05
2022-08-17T14:54:33.869Z,43.01
2022-08-17T14:57:22.220Z,41.86
2022-08-17T14:59:53.204Z,40.53
2022-08-17T15:02:30.189Z,39.57
2022-08-17T15:05:03.394Z,38.78
2022-08-17T15:07:31.400Z,38.27
2022-08-17T15:10:01.512Z,37.92
2022-08-17T15:12:33.211Z,38.24
2022-08-17T15:15:06.195Z,38.47
2022-08-17T15:17:45.098Z,38.09
2022-08-17T15:20:16.324Z,37.66
2022-08-17T15:22:44.921Z,37.28
2022-08-17T15:25:13.098Z,37.08
2022-08-17T15:27:40.466Z,36.86
2022-08-17T15:30:09.399Z,36.75
2022-08-17T15:32:38.329Z,36.53
2022-08-17T15:35:07.810Z,36.50
2022-08-17T15:37:36.337Z,36.68
2022-08-17T15:40:05.414Z,36.51
2022-08-17T15:42:32.903Z,36.37
2022-08-17T15:45:06.024Z,36.17
2022-08-17T15:47:33.145Z,36.04
2022-08-17T15:50:00.641Z,36.07
2022-08-17T15:52:30.024Z,38.60
2022-08-17T15:54:59.374Z,41.08
2022-08-17T15:57:27.343Z,42.63
2022-08-17T15:59:58.712Z,45.56
2022-08-17T16:03:44.680Z,47.68
2022-08-17T16:05:22.300Z,49.57
2022-08-17T16:07:52.599Z,49.66
2022-08-17T16:10:20.949Z,47.55
2022-08-17T16:12:49.883Z,46.19
2022-08-17T16:15:17.942Z,47.23
2022-08-17T16:17:45.071Z,48.07
2022-08-17T16:20:20.421Z,46.99
2022-08-17T16:22:50.123Z,45.36
2022-08-17T16:25:47.184Z,43.48
2022-08-17T16:28:12.377Z,43.02
2022-08-17T16:30:39.800Z,41.85
2022-08-17T16:33:07.027Z,40.84
2022-08-17T16:35:34.160Z,40.13
2022-08-17T16:38:02.658Z,39.33
2022-08-17T16:40:31.232Z,39.00
2022-08-17T16:43:03.563Z,38.69
2022-08-17T16:45:36.366Z,38.21
2022-08-17T16:48:04.381Z,37.74
2022-08-17T16:50:32.270Z,37.37
2022-08-17T16:53:08.209Z,37.11
2022-08-17T16:55:35.722Z,36.69
2022-08-17T16:58:06.303Z,36.30
2022-08-17T17:00:33.754Z,35.97
2022-08-17T17:03:30.609Z,35.56
2022-08-17T17:06:08.014Z,35.26
2022-08-17T17:08:40.680Z,35.06
2022-08-17T17:11:21.386Z,34.66
2022-08-17T17:13:58.490Z,34.51
2022-08-17T17:16:28.741Z,34.29
2022-08-17T17:19:15.189Z,34.02
2022-08-17T17:21:53.233Z,33.93
2022-08-17T17:24:28.912Z,33.75
2022-08-17T17:27:19.519Z,33.56
2022-08-17T17:29:55.167Z,33.37
2022-08-17T17:32:38.532Z,33.15
2022-08-17T17:35:12.080Z,33.00
2022-08-17T17:37:40.188Z,32.79
2022-08-17T17:40:13.939Z,32.60
2022-08-17T17:42:42.206Z,32.39
2022-08-17T17:45:16.838Z,32.18
2022-08-17T17:47:44.563Z,32.04
2022-08-17T17:50:12.332Z,31.87
2022-08-17T17:52:52.466Z,31.69
2022-08-17T17:55:44.753Z,31.52
2022-08-17T17:58:32.062Z,31.37
2022-08-17T18:01:10.179Z,31.22
2022-08-17T18:04:11.204Z,31.09
2022-08-17T18:06:58.057Z,30.92
2022-08-17T18:10:01.652Z,30.75
2022-08-17T18:12:44.054Z,30.58
2022-08-17T18:15:25.522Z,30.42
2022-08-17T18:18:16.012Z,30.25
2022-08-17T18:20:55.790Z,30.12
2022-08-17T18:23:27.924Z,29.98
2022-08-17T18:25:56.602Z,29.86
2022-08-17T18:28:27.344Z,29.76
2022-08-17T18:31:06.781Z,29.63
2022-08-17T18:33:39.170Z,29.48
2022-08-17T18:37:16.013Z,29.35
2022-08-17T18:39:46.651Z,29.18
2022-08-17T18:42:28.834Z,29.05
2022-08-17T18:44:56.428Z,28.95
2022-08-17T18:47:28.283Z,28.84
2022-08-17T18:49:58.323Z,28.73
2022-08-17T18:52:33.788Z,28.65
2022-08-17T18:55:20.437Z,28.57
2022-08-17T18:57:55.171Z,28.48
2022-08-17T19:00:43.883Z,28.40
2022-08-17T19:03:20.194Z,28.33
2022-08-17T19:05:55.838Z,28.25
2022-08-17T19:08:29.084Z,28.19
2022-08-17T19:10:58.848Z,28.13
2022-08-17T19:13:32.416Z,28.05
2022-08-17T19:16:13.908Z,27.98
2022-08-17T19:19:04.707Z,27.90
2022-08-17T19:21:39.218Z,27.84
2022-08-17T19:24:21.905Z,27.77
2022-08-17T19:26:56.948Z,27.68
2022-08-17T19:29:36.901Z,27.66
2022-08-17T19:32:04.569Z,27.60
2022-08-17T19:34:34.568Z,27.54
2022-08-17T19:37:26.495Z,27.49
2022-08-17T19:40:51.008Z,27.42
2022-08-17T19:43:19.564Z,27.34
2022-08-17T19:46:13.294Z,27.29
2022-08-17T19:48:56.029Z,27.25
2022-08-17T19:51:58.760Z,27.20
2022-08-17T19:54:47.878Z,27.13
2022-08-17T19:57:20.399Z,27.07
2022-08-17T20:00:13.359Z,26.99
2022-08-17T20:02:46.496Z,26.95
2022-08-17T20:05:25.096Z,26.90
2022-08-17T20:08:04.052Z,26.87
2022-08-17T20:11:09.620Z,26.84
2022-08-17T20:13:41.882Z,26.76
2022-08-17T20:16:10.099Z,26.71
2022-08-17T20:18:52.388Z,26.66
2022-08-17T20:21:26.225Z,26.62
2022-08-17T20:24:01.829Z,26.60
2022-08-17T20:26:51.247Z,26.55
2022-08-17T20:29:39.856Z,26.50
2022-08-17T20:32:17.222Z,26.45
2022-08-17T20:34:46.121Z,26.42
2022-08-17T20:37:13.363Z,26.39
2022-08-17T20:39:46.265Z,26.33
2022-08-17T20:42:22.540Z,26.28
2022-08-17T20:44:52.709Z,26.23
2022-08-17T20:48:15.104Z,26.20
2022-08-17T20:50:37.880Z,26.13
2022-08-17T20:53:08.583Z,26.10
2022-08-17T20:55:35.809Z,26.06
2022-08-17T20:58:29.847Z,26.00
2022-08-17T21:00:59.130Z,25.96
2022-08-17T21:03:47.593Z,25.92
2022-08-17T21:06:18.903Z,25.87
2022-08-17T21:09:29.690Z,25.81
2022-08-17T21:12:04.289Z,25.75
2022-08-17T21:14:58.102Z,25.69
2022-08-17T21:17:34.238Z,25.63
2022-08-17T21:20:11.954Z,25.58
2022-08-17T21:22:51.462Z,25.55
2022-08-17T21:25:42.295Z,25.50
2022-08-17T21:28:15.473Z,25.47
2022-08-17T21:30:52.712Z,25.44
2022-08-17T21:33:25.179Z,25.40
2022-08-17T21:35:58.641Z,25.36
2022-08-17T21:38:37.612Z,25.32
2022-08-17T21:41:04.951Z,25.30
2022-08-17T21:43:35.295Z,25.27
2022-08-17T21:46:05.761Z,25.25
2022-08-17T21:48:42.296Z,25.21
2022-08-17T21:51:12.810Z,25.20
2022-08-17T21:53:42.847Z,25.17
2022-08-17T21:56:12.274Z,25.15
2022-08-17T21:58:45.396Z,25.13
2022-08-17T22:01:31.157Z,25.11
2022-08-17T22:03:59.638Z,25.09
2022-08-17T22:06:39.671Z,25.06
2022-08-17T22:09:14.648Z,25.07
2022-08-17T22:11:59.154Z,25.04
2022-08-17T22:14:52.847Z,25.00
2022-08-17T22:17:36.416Z,25.00
2022-08-17T22:20:14.697Z,24.97
2022-08-17T22:23:12.645Z,24.94
2022-08-17T22:25:56.619Z,24.93
2022-08-17T22:28:49.099Z,24.90
2022-08-17T22:31:24.981Z,24.87
2022-08-17T22:33:59.775Z,24.86
2022-08-17T22:36:29.974Z,24.83
2022-08-17T22:39:04.072Z,24.81
2022-08-17T22:41:50.474Z,24.80
2022-08-17T22:44:37.539Z,24.77
2022-08-17T22:47:21.282Z,24.76
2022-08-17T22:49:53.880Z,24.73
2022-08-17T22:53:00.836Z,24.69
2022-08-17T22:55:47.050Z,24.66
2022-08-17T22:58:36.908Z,24.64
2022-08-17T23:01:28.785Z,24.62
2022-08-17T23:04:01.759Z,24.61
2022-08-17T23:06:30.166Z,24.59
2022-08-17T23:08:58.106Z,24.57
2022-08-17T23:11:36.712Z,24.56
2022-08-17T23:14:15.919Z,24.54
2022-08-17T23:16:43.123Z,24.50
2022-08-17T23:19:11.525Z,24.50
2022-08-17T23:21:38.853Z,24.49
2022-08-17T23:24:08.830Z,24.47
2022-08-17T23:26:38.093Z,24.43
2022-08-17T23:29:06.702Z,24.38
2022-08-17T23:31:34.783Z,24.37
2022-08-17T23:34:03.331Z,24.34
2022-08-17T23:36:31.855Z,24.33
2022-08-17T23:38:59.080Z,24.30
2022-08-17T23:41:28.006Z,24.29
2022-08-17T23:43:55.381Z,24.28
2022-08-17T23:46:25.003Z,24.25
2022-08-17T23:48:53.498Z,24.24
2022-08-17T23:51:24.247Z,24.22
2022-08-17T23:53:56.099Z,24.21
2022-08-17T23:56:26.148Z,24.20
2022-08-17T23:58:55.081Z,24.18
